sensor_id;sensor_type;location;lat;lon;timestamp;temperature;humidity
27492;DHT22;14927;51.210;6.838;2024-02-15T00:01:12;16.40;73.70
27492;DHT22;14927;51.210;6.838;2024-02-15T00:03:56;16.40;73.80
27492;DHT22;14927;51.210;6.838;2024-02-15T00:06:41;16.40;73.80
27492;DHT22;14927;51.210;6.838;2024-02-15T00:09:26;16.60;74.80
27492;DHT22;14927;51.210;6.838;2024-02-15T00:12:10;16.40;73.90
27492;DHT22;14927;51.210;6.838;2024-02-15T00:14:55;16.40;74.00
27492;DHT22;14927;51.210;6.838;2024-02-15T00:17:42;16.40;74.00
27492;DHT22;14927;51.210;6.838;2024-02-15T00:20:26;16.40;74.00
27492;DHT22;14927;51.210;6.838;2024-02-15T00:23:11;16.40;74.00
27492;DHT22;14927;51.210;6.838;2024-02-15T00:25:56;16.40;74.00
27492;DHT22;14927;51.210;6.838;2024-02-15T00:28:43;16.40;73.90
27492;DHT22;14927;51.210;6.838;2024-02-15T00:31:28;16.60;74.00
27492;DHT22;14927;51.210;6.838;2024-02-15T00:34:13;16.50;73.90
27492;DHT22;14927;51.210;6.838;2024-02-15T00:36:57;16.40;73.90
27492;DHT22;14927;51.210;6.838;2024-02-15T00:39:42;16.50;73.90
27492;DHT22;14927;51.210;6.838;2024-02-15T00:42:27;16.50;73.90
27492;DHT22;14927;51.210;6.838;2024-02-15T00:45:11;16.60;73.90
27492;DHT22;14927;51.210;6.838;2024-02-15T00:47:56;16.50;73.80
27492;DHT22;14927;51.210;6.838;2024-02-15T00:50:40;16.50;73.80
27492;DHT22;14927;51.210;6.838;2024-02-15T00:53:26;16.50;73.80
27492;DHT22;14927;51.210;6.838;2024-02-15T00:56:11;16.60;73.80
27492;DHT22;14927;51.210;6.838;2024-02-15T00:58:55;16.60;73.70
27492;DHT22;14927;51.210;6.838;2024-02-15T01:01:40;16.60;73.70
27492;DHT22;14927;51.210;6.838;2024-02-15T01:04:24;16.60;73.70
27492;DHT22;14927;51.210;6.838;2024-02-15T01:07:09;16.50;73.60
27492;DHT22;14927;51.210;6.838;2024-02-15T01:09:54;16.70;73.70
27492;DHT22;14927;51.210;6.838;2024-02-15T01:12:38;16.60;73.60
27492;DHT22;14927;51.210;6.838;2024-02-15T01:15:23;16.60;74.40
27492;DHT22;14927;51.210;6.838;2024-02-15T01:18:08;16.60;74.30
27492;DHT22;14927;51.210;6.838;2024-02-15T01:20:52;16.60;73.50
27492;DHT22;14927;51.210;6.838;2024-02-15T01:23:37;16.70;73.50
27492;DHT22;14927;51.210;6.838;2024-02-15T01:26:21;16.60;73.50
27492;DHT22;14927;51.210;6.838;2024-02-15T01:29:07;16.50;73.40
27492;DHT22;14927;51.210;6.838;2024-02-15T01:31:55;16.60;73.50
27492;DHT22;14927;51.210;6.838;2024-02-15T01:34:40;16.50;73.30
27492;DHT22;14927;51.210;6.838;2024-02-15T01:37:25;16.50;73.30
27492;DHT22;14927;51.210;6.838;2024-02-15T01:40:09;16.50;73.30
27492;DHT22;14927;51.210;6.838;2024-02-15T01:42:56;16.50;73.40
27492;DHT22;14927;51.210;6.838;2024-02-15T01:45:42;16.40;73.40
27492;DHT22;14927;51.210;6.838;2024-02-15T01:48:27;16.50;73.40
27492;DHT22;14927;51.210;6.838;2024-02-15T01:51:12;16.40;73.50
27492;DHT22;14927;51.210;6.838;2024-02-15T01:53:58;16.40;73.50
27492;DHT22;14927;51.210;6.838;2024-02-15T01:56:43;16.40;73.50
27492;DHT22;14927;51.210;6.838;2024-02-15T01:59:29;16.40;73.50
27492;DHT22;14927;51.210;6.838;2024-02-15T02:02:14;16.40;73.50
27492;DHT22;14927;51.210;6.838;2024-02-15T02:05:01;16.50;73.60
27492;DHT22;14927;51.210;6.838;2024-02-15T02:07:46;16.50;73.60
27492;DHT22;14927;51.210;6.838;2024-02-15T02:10:31;16.50;73.70
27492;DHT22;14927;51.210;6.838;2024-02-15T02:13:16;16.40;73.60
27492;DHT22;14927;51.210;6.838;2024-02-15T02:16:01;16.30;73.60
27492;DHT22;14927;51.210;6.838;2024-02-15T02:18:46;16.40;73.80
27492;DHT22;14927;51.210;6.838;2024-02-15T02:21:31;16.30;73.70
27492;DHT22;14927;51.210;6.838;2024-02-15T02:24:21;16.50;73.90
27492;DHT22;14927;51.210;6.838;2024-02-15T02:27:08;16.30;73.90
27492;DHT22;14927;51.210;6.838;2024-02-15T02:29:54;16.30;73.90
27492;DHT22;14927;51.210;6.838;2024-02-15T02:32:39;16.30;73.90
27492;DHT22;14927;51.210;6.838;2024-02-15T02:35:25;16.30;74.00
27492;DHT22;14927;51.210;6.838;2024-02-15T02:38:09;16.30;73.90
27492;DHT22;14927;51.210;6.838;2024-02-15T02:40:54;16.30;73.90
27492;DHT22;14927;51.210;6.838;2024-02-15T02:43:40;16.30;73.90
27492;DHT22;14927;51.210;6.838;2024-02-15T02:46:24;16.30;74.00
27492;DHT22;14927;51.210;6.838;2024-02-15T02:49:09;16.30;73.90
27492;DHT22;14927;51.210;6.838;2024-02-15T02:51:54;16.30;73.90
27492;DHT22;14927;51.210;6.838;2024-02-15T02:54:38;16.40;74.00
27492;DHT22;14927;51.210;6.838;2024-02-15T02:57:23;16.30;74.70
27492;DHT22;14927;51.210;6.838;2024-02-15T03:00:10;16.20;73.80
27492;DHT22;14927;51.210;6.838;2024-02-15T03:02:56;16.20;73.90
27492;DHT22;14927;51.210;6.838;2024-02-15T03:05:41;16.20;73.90
27492;DHT22;14927;51.210;6.838;2024-02-15T03:08:25;16.30;74.00
27492;DHT22;14927;51.210;6.838;2024-02-15T03:11:11;16.20;73.90
27492;DHT22;14927;51.210;6.838;2024-02-15T03:13:56;16.20;73.90
27492;DHT22;14927;51.210;6.838;2024-02-15T03:16:43;16.20;74.70
27492;DHT22;14927;51.210;6.838;2024-02-15T03:19:28;16.30;73.90
27492;DHT22;14927;51.210;6.838;2024-02-15T03:22:12;16.20;73.90
27492;DHT22;14927;51.210;6.838;2024-02-15T03:24:57;16.20;74.60
27492;DHT22;14927;51.210;6.838;2024-02-15T03:27:42;16.30;73.90
27492;DHT22;14927;51.210;6.838;2024-02-15T03:30:27;16.20;73.80
27492;DHT22;14927;51.210;6.838;2024-02-15T03:33:15;16.20;73.80
27492;DHT22;14927;51.210;6.838;2024-02-15T03:35:59;16.20;73.80
27492;DHT22;14927;51.210;6.838;2024-02-15T03:38:45;16.20;73.80
27492;DHT22;14927;51.210;6.838;2024-02-15T03:41:30;16.20;73.70
27492;DHT22;14927;51.210;6.838;2024-02-15T03:44:18;16.20;73.70
27492;DHT22;14927;51.210;6.838;2024-02-15T03:47:03;16.20;73.80
27492;DHT22;14927;51.210;6.838;2024-02-15T03:49:49;16.10;73.70
27492;DHT22;14927;51.210;6.838;2024-02-15T03:52:33;16.10;73.60
27492;DHT22;14927;51.210;6.838;2024-02-15T03:55:19;16.30;73.70
27492;DHT22;14927;51.210;6.838;2024-02-15T03:58:06;16.10;73.50
27492;DHT22;14927;51.210;6.838;2024-02-15T04:00:51;16.10;73.50
27492;DHT22;14927;51.210;6.838;2024-02-15T04:03:36;16.20;73.60
27492;DHT22;14927;51.210;6.838;2024-02-15T04:06:20;16.10;73.60
27492;DHT22;14927;51.210;6.838;2024-02-15T04:09:05;16.10;73.70
27492;DHT22;14927;51.210;6.838;2024-02-15T04:11:51;16.10;73.80
27492;DHT22;14927;51.210;6.838;2024-02-15T04:14:37;16.10;73.70
27492;DHT22;14927;51.210;6.838;2024-02-15T04:17:22;16.10;73.60
27492;DHT22;14927;51.210;6.838;2024-02-15T04:20:08;16.10;73.60
27492;DHT22;14927;51.210;6.838;2024-02-15T04:22:53;16.10;73.60
27492;DHT22;14927;51.210;6.838;2024-02-15T04:25:38;16.30;73.70
27492;DHT22;14927;51.210;6.838;2024-02-15T04:28:24;16.30;73.70
27492;DHT22;14927;51.210;6.838;2024-02-15T04:31:09;16.20;73.60
27492;DHT22;14927;51.210;6.838;2024-02-15T04:33:54;16.20;74.30
27492;DHT22;14927;51.210;6.838;2024-02-15T04:36:39;16.20;73.50
27492;DHT22;14927;51.210;6.838;2024-02-15T04:39:24;16.10;73.40
27492;DHT22;14927;51.210;6.838;2024-02-15T04:42:11;16.10;73.40
27492;DHT22;14927;51.210;6.838;2024-02-15T04:44:56;16.10;73.40
27492;DHT22;14927;51.210;6.838;2024-02-15T04:47:41;16.00;73.40
27492;DHT22;14927;51.210;6.838;2024-02-15T04:50:25;16.10;73.40
27492;DHT22;14927;51.210;6.838;2024-02-15T04:53:10;16.20;73.50
27492;DHT22;14927;51.210;6.838;2024-02-15T04:55:55;16.30;73.60
27492;DHT22;14927;51.210;6.838;2024-02-15T04:58:40;16.10;73.40
27492;DHT22;14927;51.210;6.838;2024-02-15T05:01:31;16.10;73.40
27492;DHT22;14927;51.210;6.838;2024-02-15T05:04:17;16.00;73.30
27492;DHT22;14927;51.210;6.838;2024-02-15T05:07:02;16.00;73.30
27492;DHT22;14927;51.210;6.838;2024-02-15T05:09:51;16.00;73.30
27492;DHT22;14927;51.210;6.838;2024-02-15T05:12:37;16.10;73.40
27492;DHT22;14927;51.210;6.838;2024-02-15T05:15:23;16.20;73.40
27492;DHT22;14927;51.210;6.838;2024-02-15T05:18:09;16.00;73.30
27492;DHT22;14927;51.210;6.838;2024-02-15T05:20:53;16.00;73.20
27492;DHT22;14927;51.210;6.838;2024-02-15T05:23:38;16.00;73.10
27492;DHT22;14927;51.210;6.838;2024-02-15T05:26:27;16.00;73.20
27492;DHT22;14927;51.210;6.838;2024-02-15T05:29:12;16.00;73.20
27492;DHT22;14927;51.210;6.838;2024-02-15T05:31:57;16.00;73.30
27492;DHT22;14927;51.210;6.838;2024-02-15T05:34:43;16.00;73.30
27492;DHT22;14927;51.210;6.838;2024-02-15T05:37:27;16.00;73.30
27492;DHT22;14927;51.210;6.838;2024-02-15T05:40:12;16.10;73.40
27492;DHT22;14927;51.210;6.838;2024-02-15T05:42:59;16.00;73.40
27492;DHT22;14927;51.210;6.838;2024-02-15T05:45:46;16.10;73.50
27492;DHT22;14927;51.210;6.838;2024-02-15T05:48:30;16.00;73.40
27492;DHT22;14927;51.210;6.838;2024-02-15T05:51:15;16.00;73.40
27492;DHT22;14927;51.210;6.838;2024-02-15T05:54:00;16.00;73.40
27492;DHT22;14927;51.210;6.838;2024-02-15T05:56:44;16.10;73.50
27492;DHT22;14927;51.210;6.838;2024-02-15T05:59:29;16.20;73.60
27492;DHT22;14927;51.210;6.838;2024-02-15T06:02:13;16.00;73.50
27492;DHT22;14927;51.210;6.838;2024-02-15T06:04:58;16.00;73.50
27492;DHT22;14927;51.210;6.838;2024-02-15T06:07:46;16.00;73.50
27492;DHT22;14927;51.210;6.838;2024-02-15T06:10:30;16.00;74.30
27492;DHT22;14927;51.210;6.838;2024-02-15T06:13:15;16.00;73.60
27492;DHT22;14927;51.210;6.838;2024-02-15T06:16:00;16.10;73.70
27492;DHT22;14927;51.210;6.838;2024-02-15T06:18:44;16.10;73.70
27492;DHT22;14927;51.210;6.838;2024-02-15T06:21:32;16.00;73.70
27492;DHT22;14927;51.210;6.838;2024-02-15T06:24:16;16.10;73.70
27492;DHT22;14927;51.210;6.838;2024-02-15T06:27:01;15.90;73.60
27492;DHT22;14927;51.210;6.838;2024-02-15T06:29:46;16.00;73.80
27492;DHT22;14927;51.210;6.838;2024-02-15T06:32:49;16.10;73.90
27492;DHT22;14927;51.210;6.838;2024-02-15T06:35:52;16.00;73.80
27492;DHT22;14927;51.210;6.838;2024-02-15T06:38:55;16.10;73.90
27492;DHT22;14927;51.210;6.838;2024-02-15T06:41:58;16.00;73.80
27492;DHT22;14927;51.210;6.838;2024-02-15T06:44:46;16.00;73.80
27492;DHT22;14927;51.210;6.838;2024-02-15T06:47:31;16.00;73.90
27492;DHT22;14927;51.210;6.838;2024-02-15T06:50:16;16.00;73.90
27492;DHT22;14927;51.210;6.838;2024-02-15T06:53:01;16.00;73.90
27492;DHT22;14927;51.210;6.838;2024-02-15T06:55:45;16.00;73.90
27492;DHT22;14927;51.210;6.838;2024-02-15T06:58:33;16.00;73.90
27492;DHT22;14927;51.210;6.838;2024-02-15T07:01:17;16.00;73.90
27492;DHT22;14927;51.210;6.838;2024-02-15T07:04:02;16.00;74.00
27492;DHT22;14927;51.210;6.838;2024-02-15T07:06:47;16.00;73.90
27492;DHT22;14927;51.210;6.838;2024-02-15T07:09:33;16.00;74.00
27492;DHT22;14927;51.210;6.838;2024-02-15T07:12:17;16.00;73.90
27492;DHT22;14927;51.210;6.838;2024-02-15T07:15:04;16.00;73.90
27492;DHT22;14927;51.210;6.838;2024-02-15T07:17:50;16.00;73.90
27492;DHT22;14927;51.210;6.838;2024-02-15T07:20:38;16.10;74.00
27492;DHT22;14927;51.210;6.838;2024-02-15T07:23:23;16.00;74.00
27492;DHT22;14927;51.210;6.838;2024-02-15T07:26:07;16.00;74.00
27492;DHT22;14927;51.210;6.838;2024-02-15T07:28:53;16.00;74.10
27492;DHT22;14927;51.210;6.838;2024-02-15T07:31:38;16.00;74.10
27492;DHT22;14927;51.210;6.838;2024-02-15T07:34:23;16.00;74.10
27492;DHT22;14927;51.210;6.838;2024-02-15T07:37:07;16.10;74.20
27492;DHT22;14927;51.210;6.838;2024-02-15T07:39:53;16.00;74.10
27492;DHT22;14927;51.210;6.838;2024-02-15T07:42:37;16.10;74.20
27492;DHT22;14927;51.210;6.838;2024-02-15T07:45:22;16.00;74.20
27492;DHT22;14927;51.210;6.838;2024-02-15T07:48:07;16.10;74.20
27492;DHT22;14927;51.210;6.838;2024-02-15T07:50:52;16.30;74.30
27492;DHT22;14927;51.210;6.838;2024-02-15T07:53:36;16.10;74.20
27492;DHT22;14927;51.210;6.838;2024-02-15T07:56:21;16.10;74.30
27492;DHT22;14927;51.210;6.838;2024-02-15T07:59:05;16.00;74.20
27492;DHT22;14927;51.210;6.838;2024-02-15T08:01:51;16.20;74.40
27492;DHT22;14927;51.210;6.838;2024-02-15T08:04:35;16.10;74.30
27492;DHT22;14927;51.210;6.838;2024-02-15T08:07:24;16.10;74.30
27492;DHT22;14927;51.210;6.838;2024-02-15T08:10:09;16.10;74.30
27492;DHT22;14927;51.210;6.838;2024-02-15T08:12:57;16.10;74.40
27492;DHT22;14927;51.210;6.838;2024-02-15T08:15:42;16.10;74.40
27492;DHT22;14927;51.210;6.838;2024-02-15T08:18:28;16.10;74.40
27492;DHT22;14927;51.210;6.838;2024-02-15T08:21:13;16.10;74.50
27492;DHT22;14927;51.210;6.838;2024-02-15T08:24:04;16.30;74.70
27492;DHT22;14927;51.210;6.838;2024-02-15T08:26:53;16.20;74.70
27492;DHT22;14927;51.210;6.838;2024-02-15T08:29:38;16.20;74.60
27492;DHT22;14927;51.210;6.838;2024-02-15T08:32:22;16.20;74.60
27492;DHT22;14927;51.210;6.838;2024-02-15T08:35:10;16.20;74.70
27492;DHT22;14927;51.210;6.838;2024-02-15T08:37:58;16.20;74.60
27492;DHT22;14927;51.210;6.838;2024-02-15T08:40:42;16.30;74.60
27492;DHT22;14927;51.210;6.838;2024-02-15T08:43:29;16.40;74.70
27492;DHT22;14927;51.210;6.838;2024-02-15T08:46:19;16.20;74.50
27492;DHT22;14927;51.210;6.838;2024-02-15T08:49:13;16.20;74.50
27492;DHT22;14927;51.210;6.838;2024-02-15T08:52:07;16.40;74.70
27492;DHT22;14927;51.210;6.838;2024-02-15T08:55:12;16.20;74.60
27492;DHT22;14927;51.210;6.838;2024-02-15T08:58:32;16.30;74.80
27492;DHT22;14927;51.210;6.838;2024-02-15T09:01:16;16.30;75.00
27492;DHT22;14927;51.210;6.838;2024-02-15T09:04:01;16.30;74.30
27492;DHT22;14927;51.210;6.838;2024-02-15T09:06:45;16.30;74.30
27492;DHT22;14927;51.210;6.838;2024-02-15T09:09:30;16.50;74.50
27492;DHT22;14927;51.210;6.838;2024-02-15T09:12:15;16.40;74.60
27492;DHT22;14927;51.210;6.838;2024-02-15T09:15:00;16.30;74.50
27492;DHT22;14927;51.210;6.838;2024-02-15T09:17:45;16.50;74.60
27492;DHT22;14927;51.210;6.838;2024-02-15T09:20:32;16.20;75.30
27492;DHT22;14927;51.210;6.838;2024-02-15T09:23:17;16.40;74.60
27492;DHT22;14927;51.210;6.838;2024-02-15T09:26:02;16.60;74.70
27492;DHT22;14927;51.210;6.838;2024-02-15T09:28:46;16.40;74.60
27492;DHT22;14927;51.210;6.838;2024-02-15T09:31:31;16.30;74.50
27492;DHT22;14927;51.210;6.838;2024-02-15T09:34:16;16.50;74.50
27492;DHT22;14927;51.210;6.838;2024-02-15T09:37:00;16.40;74.30
27492;DHT22;14927;51.210;6.838;2024-02-15T09:39:56;16.60;74.50
27492;DHT22;14927;51.210;6.838;2024-02-15T09:42:44;16.70;74.60
27492;DHT22;14927;51.210;6.838;2024-02-15T09:45:31;16.50;74.30
27492;DHT22;14927;51.210;6.838;2024-02-15T09:48:19;16.60;74.20
27492;DHT22;14927;51.210;6.838;2024-02-15T09:51:11;16.70;74.20
27492;DHT22;14927;51.210;6.838;2024-02-15T09:53:59;16.60;74.20
27492;DHT22;14927;51.210;6.838;2024-02-15T09:56:51;16.60;74.10
27492;DHT22;14927;51.210;6.838;2024-02-15T09:59:39;16.70;74.10
27492;DHT22;14927;51.210;6.838;2024-02-15T10:02:24;16.70;74.10
27492;DHT22;14927;51.210;6.838;2024-02-15T10:05:11;16.80;74.00
27492;DHT22;14927;51.210;6.838;2024-02-15T10:07:56;16.90;73.90
27492;DHT22;14927;51.210;6.838;2024-02-15T10:10:41;16.80;73.70
27492;DHT22;14927;51.210;6.838;2024-02-15T10:13:25;16.80;74.30
27492;DHT22;14927;51.210;6.838;2024-02-15T10:16:20;16.90;73.40
27492;DHT22;14927;51.210;6.838;2024-02-15T10:19:09;17.00;73.20
27492;DHT22;14927;51.210;6.838;2024-02-15T10:22:09;16.90;73.20
27492;DHT22;14927;51.210;6.838;2024-02-15T10:25:11;16.90;72.90
27492;DHT22;14927;51.210;6.838;2024-02-15T10:28:06;16.90;72.60
27492;DHT22;14927;51.210;6.838;2024-02-15T10:30:51;17.00;72.30
27492;DHT22;14927;51.210;6.838;2024-02-15T10:33:37;17.00;72.30
27492;DHT22;14927;51.210;6.838;2024-02-15T10:36:24;17.00;72.20
27492;DHT22;14927;51.210;6.838;2024-02-15T10:39:14;17.00;72.00
27492;DHT22;14927;51.210;6.838;2024-02-15T10:42:06;17.00;72.10
27492;DHT22;14927;51.210;6.838;2024-02-15T10:44:51;17.20;72.30
27492;DHT22;14927;51.210;6.838;2024-02-15T10:47:39;17.10;72.10
27492;DHT22;14927;51.210;6.838;2024-02-15T10:50:27;17.10;71.80
27492;DHT22;14927;51.210;6.838;2024-02-15T10:53:23;17.20;71.90
27492;DHT22;14927;51.210;6.838;2024-02-15T10:59:08;17.20;71.90
27492;DHT22;14927;51.210;6.838;2024-02-15T11:01:59;17.20;71.60
27492;DHT22;14927;51.210;6.838;2024-02-15T11:04:45;17.30;71.60
27492;DHT22;14927;51.210;6.838;2024-02-15T11:07:31;17.30;71.40
27492;DHT22;14927;51.210;6.838;2024-02-15T11:10:17;17.30;71.30
27492;DHT22;14927;51.210;6.838;2024-02-15T11:13:02;17.50;71.30
27492;DHT22;14927;51.210;6.838;2024-02-15T11:15:47;17.40;71.10
27492;DHT22;14927;51.210;6.838;2024-02-15T11:18:42;17.40;70.90
27492;DHT22;14927;51.210;6.838;2024-02-15T11:21:53;17.50;70.80
27492;DHT22;14927;51.210;6.838;2024-02-15T11:24:46;17.50;70.60
27492;DHT22;14927;51.210;6.838;2024-02-15T11:27:31;17.60;70.30
27492;DHT22;14927;51.210;6.838;2024-02-15T11:30:31;17.70;70.50
27492;DHT22;14927;51.210;6.838;2024-02-15T11:33:34;17.70;69.80
27492;DHT22;14927;51.210;6.838;2024-02-15T11:36:30;17.80;69.70
27492;DHT22;14927;51.210;6.838;2024-02-15T11:39:41;17.80;69.50
27492;DHT22;14927;51.210;6.838;2024-02-15T11:42:32;17.90;68.80
27492;DHT22;14927;51.210;6.838;2024-02-15T11:45:21;17.90;69.10
27492;DHT22;14927;51.210;6.838;2024-02-15T11:48:13;18.00;69.20
27492;DHT22;14927;51.210;6.838;2024-02-15T11:50:58;18.00;68.90
27492;DHT22;14927;51.210;6.838;2024-02-15T11:53:42;18.10;69.10
27492;DHT22;14927;51.210;6.838;2024-02-15T11:56:27;18.20;68.90
27492;DHT22;14927;51.210;6.838;2024-02-15T11:59:12;18.30;68.90
27492;DHT22;14927;51.210;6.838;2024-02-15T12:02:03;18.40;68.70
27492;DHT22;14927;51.210;6.838;2024-02-15T12:05:08;18.70;68.20
27492;DHT22;14927;51.210;6.838;2024-02-15T12:08:11;18.70;67.50
27492;DHT22;14927;51.210;6.838;2024-02-15T12:11:14;18.80;67.30
27492;DHT22;14927;51.210;6.838;2024-02-15T12:14:19;18.90;66.90
27492;DHT22;14927;51.210;6.838;2024-02-15T12:17:43;19.20;66.20
27492;DHT22;14927;51.210;6.838;2024-02-15T12:20:49;19.40;64.40
27492;DHT22;14927;51.210;6.838;2024-02-15T12:23:34;19.30;65.20
27492;DHT22;14927;51.210;6.838;2024-02-15T12:26:20;19.40;64.70
27492;DHT22;14927;51.210;6.838;2024-02-15T12:29:07;19.50;64.30
27492;DHT22;14927;51.210;6.838;2024-02-15T12:31:52;19.80;64.20
27492;DHT22;14927;51.210;6.838;2024-02-15T12:34:38;19.70;63.50
27492;DHT22;14927;51.210;6.838;2024-02-15T12:37:25;19.80;63.20
27492;DHT22;14927;51.210;6.838;2024-02-15T12:40:22;19.90;62.60
27492;DHT22;14927;51.210;6.838;2024-02-15T12:43:08;20.20;62.40
27492;DHT22;14927;51.210;6.838;2024-02-15T12:45:56;20.10;61.70
27492;DHT22;14927;51.210;6.838;2024-02-15T12:48:41;20.20;61.40
27492;DHT22;14927;51.210;6.838;2024-02-15T12:51:30;20.30;60.80
27492;DHT22;14927;51.210;6.838;2024-02-15T12:54:24;20.40;60.40
27492;DHT22;14927;51.210;6.838;2024-02-15T12:57:14;20.40;59.60
27492;DHT22;14927;51.210;6.838;2024-02-15T12:59:59;20.50;60.10
27492;DHT22;14927;51.210;6.838;2024-02-15T13:02:45;20.60;59.70
27492;DHT22;14927;51.210;6.838;2024-02-15T13:05:32;20.60;59.40
27492;DHT22;14927;51.210;6.838;2024-02-15T13:08:17;20.60;59.30
27492;DHT22;14927;51.210;6.838;2024-02-15T13:11:02;20.70;59.00
27492;DHT22;14927;51.210;6.838;2024-02-15T13:13:47;20.70;58.80
27492;DHT22;14927;51.210;6.838;2024-02-15T13:16:32;20.70;58.50
27492;DHT22;14927;51.210;6.838;2024-02-15T13:19:16;20.70;58.30
27492;DHT22;14927;51.210;6.838;2024-02-15T13:22:01;20.70;58.40
27492;DHT22;14927;51.210;6.838;2024-02-15T13:24:45;20.80;59.30
27492;DHT22;14927;51.210;6.838;2024-02-15T13:27:30;20.80;58.90
27492;DHT22;14927;51.210;6.838;2024-02-15T13:30:15;20.90;58.60
27492;DHT22;14927;51.210;6.838;2024-02-15T13:33:01;20.90;58.60
27492;DHT22;14927;51.210;6.838;2024-02-15T13:35:46;21.00;58.50
27492;DHT22;14927;51.210;6.838;2024-02-15T13:38:31;21.00;58.10
27492;DHT22;14927;51.210;6.838;2024-02-15T13:41:16;21.10;57.80
27492;DHT22;14927;51.210;6.838;2024-02-15T13:44:01;21.10;57.70
27492;DHT22;14927;51.210;6.838;2024-02-15T13:46:46;21.10;57.80
27492;DHT22;14927;51.210;6.838;2024-02-15T13:49:31;21.10;57.60
27492;DHT22;14927;51.210;6.838;2024-02-15T13:52:15;21.10;57.50
27492;DHT22;14927;51.210;6.838;2024-02-15T13:55:01;21.20;57.50
27492;DHT22;14927;51.210;6.838;2024-02-15T13:57:47;21.20;57.60
27492;DHT22;14927;51.210;6.838;2024-02-15T14:00:32;21.20;57.40
27492;DHT22;14927;51.210;6.838;2024-02-15T14:03:20;21.20;57.30
27492;DHT22;14927;51.210;6.838;2024-02-15T14:06:05;21.20;57.40
27492;DHT22;14927;51.210;6.838;2024-02-15T14:08:50;21.20;57.30
27492;DHT22;14927;51.210;6.838;2024-02-15T14:11:38;21.20;57.20
27492;DHT22;14927;51.210;6.838;2024-02-15T14:14:31;21.20;57.10
27492;DHT22;14927;51.210;6.838;2024-02-15T14:17:33;21.20;56.70
27492;DHT22;14927;51.210;6.838;2024-02-15T14:20:23;21.20;57.10
27492;DHT22;14927;51.210;6.838;2024-02-15T14:23:14;21.20;57.00
27492;DHT22;14927;51.210;6.838;2024-02-15T14:26:36;21.20;56.60
27492;DHT22;14927;51.210;6.838;2024-02-15T14:33:43;21.10;56.40
27492;DHT22;14927;51.210;6.838;2024-02-15T14:36:41;21.10;56.20
27492;DHT22;14927;51.210;6.838;2024-02-15T14:39:57;21.10;56.30
27492;DHT22;14927;51.210;6.838;2024-02-15T14:42:44;21.10;56.70
27492;DHT22;14927;51.210;6.838;2024-02-15T14:45:39;21.10;56.40
27492;DHT22;14927;51.210;6.838;2024-02-15T14:48:49;21.30;56.10
27492;DHT22;14927;51.210;6.838;2024-02-15T14:51:34;20.90;56.80
27492;DHT22;14927;51.210;6.838;2024-02-15T14:54:36;21.10;56.40
27492;DHT22;14927;51.210;6.838;2024-02-15T14:57:26;21.10;55.50
27492;DHT22;14927;51.210;6.838;2024-02-15T15:00:23;21.10;55.90
27492;DHT22;14927;51.210;6.838;2024-02-15T15:03:21;21.00;55.30
27492;DHT22;14927;51.210;6.838;2024-02-15T15:06:07;21.00;55.30
27492;DHT22;14927;51.210;6.838;2024-02-15T15:09:11;21.20;55.50
27492;DHT22;14927;51.210;6.838;2024-02-15T15:12:21;21.00;55.50
27492;DHT22;14927;51.210;6.838;2024-02-15T15:15:41;21.00;55.20
27492;DHT22;14927;51.210;6.838;2024-02-15T15:18:45;21.00;55.20
27492;DHT22;14927;51.210;6.838;2024-02-15T15:21:59;21.00;54.70
27492;DHT22;14927;51.210;6.838;2024-02-15T15:25:48;21.00;54.70
27492;DHT22;14927;51.210;6.838;2024-02-15T15:31:33;20.90;54.90
27492;DHT22;14927;51.210;6.838;2024-02-15T15:34:46;20.90;55.00
27492;DHT22;14927;51.210;6.838;2024-02-15T15:37:38;20.90;54.50
27492;DHT22;14927;51.210;6.838;2024-02-15T15:40:43;20.80;55.00
27492;DHT22;14927;51.210;6.838;2024-02-15T15:43:41;20.80;54.90
27492;DHT22;14927;51.210;6.838;2024-02-15T15:46:28;20.70;54.80
27492;DHT22;14927;51.210;6.838;2024-02-15T15:49:31;20.70;55.00
27492;DHT22;14927;51.210;6.838;2024-02-15T15:52:45;20.70;55.10
27492;DHT22;14927;51.210;6.838;2024-02-15T15:55:48;20.50;55.10
27492;DHT22;14927;51.210;6.838;2024-02-15T15:59:08;20.50;54.90
27492;DHT22;14927;51.210;6.838;2024-02-15T16:08:13;20.50;55.50
27492;DHT22;14927;51.210;6.838;2024-02-15T16:11:26;20.40;55.40
27492;DHT22;14927;51.210;6.838;2024-02-15T16:14:43;20.30;55.10
27492;DHT22;14927;51.210;6.838;2024-02-15T16:17:33;20.40;55.40
27492;DHT22;14927;51.210;6.838;2024-02-15T16:21:05;20.40;55.40
27492;DHT22;14927;51.210;6.838;2024-02-15T16:23:52;20.30;55.00
27492;DHT22;14927;51.210;6.838;2024-02-15T16:26:45;20.10;55.30
27492;DHT22;14927;51.210;6.838;2024-02-15T16:29:45;20.20;55.00
27492;DHT22;14927;51.210;6.838;2024-02-15T16:41:18;20.10;54.90
27492;DHT22;14927;51.210;6.838;2024-02-15T16:48:07;19.90;55.30
27492;DHT22;14927;51.210;6.838;2024-02-15T16:54:29;19.80;55.70
27492;DHT22;14927;51.210;6.838;2024-02-15T17:01:40;19.80;55.20
27492;DHT22;14927;51.210;6.838;2024-02-15T17:04:39;19.50;54.90
27492;DHT22;14927;51.210;6.838;2024-02-15T17:11:27;19.60;54.80
27492;DHT22;14927;51.210;6.838;2024-02-15T17:14:46;19.50;55.30
27492;DHT22;14927;51.210;6.838;2024-02-15T17:17:34;19.40;55.00
27492;DHT22;14927;51.210;6.838;2024-02-15T17:20:22;19.40;55.30
27492;DHT22;14927;51.210;6.838;2024-02-15T17:23:10;19.40;55.20
27492;DHT22;14927;51.210;6.838;2024-02-15T17:25:55;19.40;55.20
27492;DHT22;14927;51.210;6.838;2024-02-15T17:28:42;19.30;55.20
27492;DHT22;14927;51.210;6.838;2024-02-15T17:31:31;19.30;55.10
27492;DHT22;14927;51.210;6.838;2024-02-15T17:34:18;19.20;55.00
27492;DHT22;14927;51.210;6.838;2024-02-15T17:37:04;19.10;55.20
27492;DHT22;14927;51.210;6.838;2024-02-15T17:39:49;19.10;55.20
27492;DHT22;14927;51.210;6.838;2024-02-15T17:42:34;19.10;55.20
27492;DHT22;14927;51.210;6.838;2024-02-15T17:45:21;19.10;55.20
27492;DHT22;14927;51.210;6.838;2024-02-15T17:48:09;19.00;55.10
27492;DHT22;14927;51.210;6.838;2024-02-15T17:51:06;19.00;55.60
27492;DHT22;14927;51.210;6.838;2024-02-15T17:53:54;19.00;55.40
27492;DHT22;14927;51.210;6.838;2024-02-15T17:56:41;18.90;56.00
27492;DHT22;14927;51.210;6.838;2024-02-15T17:59:28;18.90;55.40
27492;DHT22;14927;51.210;6.838;2024-02-15T18:02:18;18.70;55.30
27492;DHT22;14927;51.210;6.838;2024-02-15T18:05:03;18.80;55.40
27492;DHT22;14927;51.210;6.838;2024-02-15T18:07:53;18.80;55.50
27492;DHT22;14927;51.210;6.838;2024-02-15T18:10:54;18.60;55.50
27492;DHT22;14927;51.210;6.838;2024-02-15T18:13:41;18.70;55.30
27492;DHT22;14927;51.210;6.838;2024-02-15T18:16:35;18.70;55.60
27492;DHT22;14927;51.210;6.838;2024-02-15T18:19:22;18.70;55.60
27492;DHT22;14927;51.210;6.838;2024-02-15T18:22:12;18.70;55.60
27492;DHT22;14927;51.210;6.838;2024-02-15T18:25:07;18.50;55.60
27492;DHT22;14927;51.210;6.838;2024-02-15T18:27:53;18.60;55.60